Time;durP1;ratioP1;P1;durP2;ratioP2;P2;SDS_P1;SDS_P2;PMS_P1;PMS_P2;Temp;Humidity;BMP_temperature;BMP_pressure;BME280_temperature;BME280_humidity;BME280_pressure;Samples;Min_cycle;Max_cycle;Signal;HPM_P1;HPM_P2
2023/01/02 00:13:37;;;;;;;1184.93;520.73;;;9.10;99.90;;;;;;5060718;28;20393;-87
2023/01/02 00:16:39;;;;;;;1189.33;522.03;;;9.30;99.90;;;;;;5014324;28;20513;-88
2023/01/02 00:20:12;;;;;;;1168.87;488.83;;;9.10;99.90;;;;;;4972072;28;20112;-89
2023/01/02 00:31:29;;;;;;;1176.37;471.30;;;9.10;99.90;;;;;;4972370;28;20061;-88
2023/01/02 02:11:30;;;;;;;;;;;;;;;;;;;;;
2023/01/02 02:15:21;;;;;;;;;;;;;;;;;;;;;
2023/01/02 02:24:11;;;;;;;;;;;;;;;;;;;;;
2023/01/02 02:28:08;;;;;;;1138.57;520.47;;;10.10;99.90;;;;;;4930839;29;20416;-89
2023/01/02 02:39:02;;;;;;;1116.87;456.97;;;10.10;99.90;;;;;;4935672;29;20059;-88
2023/01/02 03:31:58;;;;;;;1222.60;530.07;;;10.60;99.90;;;;;;4934497;29;20595;-89
2023/01/02 03:43:03;;;;;;;1238.83;530.03;;;10.60;99.90;;;;;;4878345;29;20078;-86
2023/01/02 03:46:41;;;;;;;1195.53;528.03;;;10.60;99.90;;;;;;4876428;29;20149;-87
2023/01/02 03:53:48;;;;;;;1160.57;473.47;;;10.60;99.90;;;;;;4920336;29;20131;-88
2023/01/02 04:01:05;;;;;;;1153.23;472.07;;;10.70;99.90;;;;;;4877928;29;20088;-88
2023/01/02 04:04:45;;;;;;;1187.10;530.23;;;10.70;99.90;;;;;;4877846;29;20061;-88
2023/01/02 04:12:25;;;;;;;;;;;;;;;;;;;;;
2023/01/02 04:16:12;;;;;;;;;;;;;;;;;;;;;
2023/01/02 04:24:16;;;;;;;1194.40;525.87;;;10.80;99.90;;;;;;4750517;30;20064;-88
2023/01/02 04:28:08;;;;;;;1189.50;526.40;;;11.30;99.90;;;;;;4759679;30;20059;-89
2023/01/02 04:47:12;;;;;;;;;;;;;;;;;;;;;
2023/01/02 04:51:06;;;;;;;1181.97;518.03;;;10.90;99.90;;;;;;4763538;29;20048;-89
2023/01/02 05:02:02;;;;;;;1135.53;443.77;;;10.90;99.90;;;;;;4832757;29;20298;-87
2023/01/02 05:09:41;;;;;;;1069.50;422.60;;;11.20;99.90;;;;;;4807380;29;20054;-89
2023/01/02 05:16:36;;;;;;;532.70;227.73;;;10.90;99.90;;;;;;4815969;29;20161;-88
2023/01/02 05:31:50;;;;;;;85.93;70.00;;;10.90;99.90;;;;;;4866060;29;20101;-89
2023/01/02 05:39:44;;;;;;;808.47;468.92;;;10.90;99.90;;;;;;4872986;29;20116;-89
2023/01/02 06:13:47;;;;;;;2.50;1.20;;;10.90;99.90;;;;;;5075840;28;20077;-87
2023/01/02 06:21:06;;;;;;;1.58;1.00;;;11.00;99.90;;;;;;5055586;28;20087;-88
2023/01/02 06:41:47;;;;;;;1.10;0.80;;;11.30;99.90;;;;;;4943114;29;20110;-88
2023/01/02 06:53:51;;;;;;;2.00;1.35;;;10.80;99.90;;;;;;4878814;29;20457;-87
2023/01/02 06:57:24;;;;;;;;;;;11.10;99.90;;;;;;4846126;29;20053;-87
2023/01/02 07:04:50;;;;;;;1.90;1.38;;;10.70;99.90;;;;;;4823497;29;20079;-88
2023/01/02 07:08:19;;;;;;;3.55;1.98;;;10.60;99.90;;;;;;4814655;29;20222;-87
2023/01/02 07:11:56;;;;;;;;;;;;;;;;;;;;;
2023/01/02 07:15:31;;;;;;;2.95;1.27;;;10.70;99.90;;;;;;4793221;29;20118;-87
2023/01/02 07:19:18;;;;;;;2.65;1.05;;;10.40;99.90;;;;;;4790190;29;20137;-87
2023/01/02 07:23:26;;;;;;;1.98;0.68;;;10.30;99.90;;;;;;4768905;30;20135;-88
2023/01/02 07:30:43;;;;;;;1.23;0.50;;;9.80;99.90;;;;;;4632485;30;20121;-87
2023/01/02 08:03:38;;;;;;;;;;;;;;;;;;;;;
2023/01/02 08:10:21;;;;;;;2.58;0.65;;;8.60;99.90;;;;;;4838523;29;20102;-88
2023/01/02 08:13:44;;;;;;;;;;;;;;;;;;;;;
2023/01/02 08:17:47;;;;;;;;;;;;;;;;;;;;;
2023/01/02 08:35:51;;;;;;;;;;;;;;;;;;;;;
2023/01/02 08:39:40;;;;;;;2.58;0.40;;;8.40;99.90;;;;;;5051413;28;20140;-89
2023/01/02 08:43:40;;;;;;;;;;;;;;;;;;;;;
2023/01/02 08:54:23;;;;;;;1.70;0.40;;;8.30;99.90;;;;;;5004049;28;20054;-88
2023/01/02 08:57:49;;;;;;;1.27;0.60;;;8.40;99.90;;;;;;4914663;29;20071;-90
2023/01/02 09:01:23;;;;;;;2.53;0.40;;;8.40;99.90;;;;;;4912955;29;20067;-90
2023/01/02 09:08:54;;;;;;;;;;;;;;;;;;;;;
2023/01/02 09:28:17;;;;;;;0.45;0.30;;;8.40;99.90;;;;;;4971883;28;20062;-86
2023/01/02 09:34:54;;;;;;;722.22;394.50;;;8.40;99.90;;;;;;4972983;28;20136;-87
2023/01/02 09:38:24;;;;;;;989.47;451.73;;;8.40;99.90;;;;;;4990478;28;20049;-87
2023/01/02 09:42:20;;;;;;;1004.03;455.40;;;8.60;99.90;;;;;;4978207;28;20081;-86
2023/01/02 09:45:34;;;;;;;1154.07;456.40;;;8.40;99.90;;;;;;4958865;28;20050;-88
2023/01/02 09:48:22;;;;;;;1130.80;463.83;;;8.40;99.90;;;;;;4984980;28;20542;-90
2023/01/02 09:50:53;;;;;;;1094.43;496.67;;;8.40;99.90;;;;;;4980223;28;20043;-88
2023/01/02 09:53:26;;;;;;;1100.90;416.53;;;8.50;99.90;;;;;;5026156;28;20056;-87
2023/01/02 09:56:01;;;;;;;1139.50;496.30;;;8.50;99.90;;;;;;5057894;28;20299;-86
2023/01/02 09:58:42;;;;;;;1127.63;497.37;;;8.50;99.90;;;;;;5095499;28;20281;-88
2023/01/02 10:01:26;;;;;;;1094.30;410.57;;;8.50;99.90;;;;;;5095536;28;20323;-87
2023/01/02 10:04:28;;;;;;;1070.53;399.67;;;8.50;99.90;;;;;;5077654;28;20282;-90
2023/01/02 10:07:19;;;;;;;968.53;483.17;;;8.50;99.90;;;;;;5092415;28;20294;-89
2023/01/02 10:10:17;;;;;;;1007.90;500.00;;;8.50;99.90;;;;;;5075608;28;20041;-88
2023/01/02 10:13:14;;;;;;;172.50;139.25;;;8.60;99.90;;;;;;5057885;28;20102;-85
2023/01/02 10:15:52;;;;;;;0.77;0.40;;;8.60;99.90;;;;;;4974522;28;20047;-87
2023/01/02 10:18:31;;;;;;;2.35;0.60;;;8.60;99.90;;;;;;4984187;28;20054;-89
2023/01/02 10:21:27;;;;;;;1.08;0.50;;;8.60;99.90;;;;;;4973571;28;20057;-84
2023/01/02 10:24:24;;;;;;;1.80;0.90;;;8.60;99.90;;;;;;4974005;28;20054;-91
2023/01/02 10:26:58;;;;;;;0.80;0.60;;;8.70;99.90;;;;;;4958081;28;20066;-84
2023/01/02 10:29:46;;;;;;;2.28;0.73;;;8.70;99.90;;;;;;4976033;28;20047;-87
2023/01/02 10:32:16;;;;;;;3.17;0.60;;;8.70;99.90;;;;;;4961409;28;20450;-84
2023/01/02 10:35:19;;;;;;;2.58;0.93;;;8.20;99.90;;;;;;4977842;28;20093;-84
2023/01/02 10:37:50;;;;;;;2.35;0.30;;;8.70;99.90;;;;;;4993384;28;20069;-85
2023/01/02 10:40:26;;;;;;;1.67;0.30;;;8.70;99.90;;;;;;4991610;28;20046;-83
2023/01/02 10:42:56;;;;;;;2.88;0.40;;;8.70;99.90;;;;;;4993585;28;20038;-85
2023/01/02 10:45:30;;;;;;;0.45;0.30;;;8.70;99.90;;;;;;4992692;28;20046;-84
2023/01/02 10:48:00;;;;;;;1.33;0.32;;;8.60;99.90;;;;;;4993022;28;20070;-85
2023/01/02 10:50:38;;;;;;;2.05;1.55;;;8.60;99.90;;;;;;4977231;28;20050;-87
2023/01/02 10:53:20;;;;;;;11.85;9.55;;;8.40;99.90;;;;;;5021124;28;20061;-88
2023/01/02 10:55:59;;;;;;;0.45;0.20;;;8.80;99.90;;;;;;5047690;28;20087;-86
2023/01/02 10:58:28;;;;;;;0.65;0.28;;;8.70;99.90;;;;;;5050970;23;20064;-86
2023/01/02 11:01:18;;;;;;;0.73;0.20;;;8.70;99.90;;;;;;5017012;28;20045;-85
2023/01/02 11:03:57;;;;;;;0.43;0.20;;;8.70;99.90;;;;;;5034343;28;20029;-87
2023/01/02 11:06:32;;;;;;;1.50;0.30;;;8.70;99.90;;;;;;5034539;28;20490;-86
2023/01/02 11:09:25;;;;;;;1.20;0.30;;;8.80;99.90;;;;;;5032952;28;20103;-83
2023/01/02 11:12:15;;;;;;;7.32;2.60;;;8.70;99.90;;;;;;5032895;28;20045;-83
2023/01/02 11:14:49;;;;;;;1.60;1.38;;;8.70;99.90;;;;;;5031351;28;20045;-84
2023/01/02 11:17:43;;;;;;;1.73;0.35;;;8.80;99.90;;;;;;5034176;28;20060;-85
2023/01/02 11:20:38;;;;;;;1.27;1.17;;;8.80;99.90;;;;;;5033782;28;20080;-84
2023/01/02 11:23:06;;;;;;;1.60;0.57;;;8.00;99.90;;;;;;5034445;28;20083;-87
2023/01/02 11:26:30;;;;;;;22.95;20.75;;;9.00;99.90;;;;;;5034397;28;20046;-84
2023/01/02 11:30:12;;;;;;;96.35;57.45;;;8.30;99.90;;;;;;4982450;28;20058;-85
2023/01/02 11:33:36;;;;;;;37.05;26.35;;;8.80;99.90;;;;;;4955542;28;20068;-86
2023/01/02 11:37:09;;;;;;;26.60;24.15;;;8.90;99.90;;;;;;4896869;29;20402;-87
2023/01/02 11:40:59;;;;;;;40.08;30.50;;;8.90;99.90;;;;;;4897097;29;20088;-86
2023/01/02 11:44:37;;;;;;;294.08;182.43;;;9.00;99.90;;;;;;4889902;29;20190;-86
2023/01/02 11:55:50;;;;;;;;;;;;;;;;;;;;;
2023/01/02 11:59:17;;;;;;;571.45;293.27;;;9.20;99.90;;;;;;4822158;29;20074;-87
2023/01/02 12:03:13;;;;;;;885.40;445.07;;;9.30;99.90;;;;;;4840741;29;20073;-89
2023/01/02 12:06:21;;;;;;;400.27;253.90;;;9.20;99.90;;;;;;4966438;22;20040;-88
2023/01/02 12:09:45;;;;;;;;;;;;;;;;;;;;;
2023/01/02 12:13:28;;;;;;;;;;;;;;;;;;;;;
2023/01/02 12:16:48;;;;;;;493.00;295.95;;;9.30;99.90;;;;;;5034223;28;20139;-87
2023/01/02 12:20:22;;;;;;;;;;;;;;;;;;;;;
2023/01/02 12:23:50;;;;;;;724.15;371.27;;;9.20;99.90;;;;;;5039868;28;20040;-87
2023/01/02 12:27:21;;;;;;;490.17;248.55;;;9.20;99.90;;;;;;5054765;28;20080;-88
2023/01/02 12:31:16;;;;;;;876.08;464.13;;;9.10;99.90;;;;;;5068558;28;20037;-88
2023/01/02 12:34:33;;;;;;;200.13;147.60;;;9.10;99.90;;;;;;5053027;28;20049;-88
2023/01/02 12:37:22;;;;;;;1.77;0.45;;;9.10;99.90;;;;;;5045947;28;20044;-86
2023/01/02 12:40:08;;;;;;;3.10;0.40;;;9.10;99.90;;;;;;5054957;28;20507;-86
2023/01/02 12:42:53;;;;;;;;;;;9.10;99.90;;;;;;5072252;28;20044;-86
2023/01/02 12:49:19;;;;;;;287.63;171.00;;;9.40;99.90;;;;;;4994980;28;20483;-89
2023/01/02 12:52:19;;;;;;;1160.00;477.80;;;9.10;99.90;;;;;;4994458;28;20054;-86
2023/01/02 12:55:17;;;;;;;772.83;402.43;;;8.60;99.90;;;;;;5011364;28;20046;-92
2023/01/02 12:58:22;;;;;;;;;;;9.00;99.90;;;;;;4993860;28;20509;-91
2023/01/02 13:01:28;;;;;;;1024.00;465.27;;;9.00;99.90;;;;;;5018189;22;19926;-88
2023/01/02 13:13:16;;;;;;;3.88;0.82;;;9.00;99.90;;;;;;5045504;28;20079;-89
2023/01/02 13:16:27;;;;;;;4.10;0.50;;;9.00;99.90;;;;;;4981810;28;20516;-90
2023/01/02 13:19:53;;;;;;;764.03;348.30;;;8.40;99.90;;;;;;4976313;28;20058;-89
2023/01/02 13:29:05;;;;;;;1308.80;516.43;;;9.10;99.90;;;;;;5082614;22;20501;-87
2023/01/02 13:32:28;;;;;;;1322.93;507.17;;;9.00;99.90;;;;;;5058038;28;20048;-89
2023/01/02 13:38:25;;;;;;;1377.47;527.87;;;9.10;99.90;;;;;;5137084;22;20071;-89
2023/01/02 13:42:57;;;;;;;1374.50;527.27;;;9.10;99.90;;;;;;5023155;28;20054;-89
2023/01/02 13:44:43;;;;;;;1193.10;490.03;;;9.20;99.90;;;;;;5070544;22;20400;-88
2023/01/02 13:47:38;;;;;;;1281.40;490.23;;;9.10;99.90;;;;;;5087256;28;20052;-88
2023/01/02 13:50:59;;;;;;;;;;;;;;;;;;;;;
2023/01/02 13:53:42;;;;;;;1268.00;489.60;;;9.10;99.90;;;;;;4974972;28;20059;-89
2023/01/02 13:56:22;;;;;;;1209.73;485.43;;;9.10;99.90;;;;;;4942604;28;20118;-87
2023/01/02 13:58:56;;;;;;;1286.43;521.37;;;9.00;99.90;;;;;;4960274;28;20114;-87
2023/01/02 14:01:43;;;;;;;1231.70;522.27;;;9.10;99.90;;;;;;4959716;28;20478;-87
2023/01/02 14:04:22;;;;;;;1206.57;513.90;;;9.10;99.90;;;;;;4974180;28;20061;-87
2023/01/02 14:06:52;;;;;;;1234.53;511.07;;;9.00;99.90;;;;;;4974696;28;20043;-86
2023/01/02 14:09:28;;;;;;;1160.30;477.80;;;9.00;99.90;;;;;;4975545;28;20043;-86
2023/01/02 14:12:14;;;;;;;1285.43;535.07;;;9.00;99.90;;;;;;4962807;28;20443;-87
2023/01/02 14:14:51;;;;;;;1290.43;524.63;;;9.00;99.90;;;;;;4982705;28;20049;-85
2023/01/02 14:17:36;;;;;;;1224.97;462.00;;;9.00;99.90;;;;;;4964074;28;20055;-87
2023/01/02 14:20:37;;;;;;;1166.03;430.67;;;9.00;99.90;;;;;;4973963;28;20129;-86
2023/01/02 14:23:12;;;;;;;1288.50;538.97;;;9.30;99.90;;;;;;4958554;28;20174;-89
2023/01/02 14:26:23;;;;;;;1168.53;444.73;;;8.90;99.90;;;;;;4958798;28;20054;-88
2023/01/02 14:28:55;;;;;;;1180.00;436.23;;;8.70;99.90;;;;;;4934116;28;20114;-89
2023/01/02 14:31:35;;;;;;;1184.97;510.17;;;8.90;99.90;;;;;;4970550;28;20309;-89
2023/01/02 14:34:27;;;;;;;1201.70;508.50;;;9.70;99.90;;;;;;4974758;28;20282;-89
2023/01/02 14:36:58;;;;;;;1212.13;508.20;;;8.80;99.90;;;;;;4958590;28;20299;-87
2023/01/02 14:39:35;;;;;;;1198.80;508.23;;;8.80;99.90;;;;;;4973696;28;20050;-87
2023/01/02 14:45:53;;;;;;;1170.00;499.67;;;8.80;99.90;;;;;;4973843;28;20514;-89
2023/01/02 14:49:10;;;;;;;1115.50;413.63;;;8.80;99.90;;;;;;4999975;28;20792;-88
2023/01/02 14:53:03;;;;;;;;;;;;;;;;;;;;;
2023/01/02 14:56:37;;;;;;;1117.60;419.93;;;8.70;99.90;;;;;;4993741;28;20277;-86
2023/01/02 15:00:24;;;;;;;1124.18;414.05;;;8.20;99.90;;;;;;4977315;28;20282;-86
2023/01/02 15:03:51;;;;;;;1129.77;417.97;;;8.70;99.90;;;;;;5008040;28;20176;-86
2023/01/02 15:19:06;;;;;;;1178.37;499.33;;;8.50;99.90;;;;;;4840290;29;20303;-87
2023/01/02 15:22:30;;;;;;;1174.87;500.37;;;8.60;99.90;;;;;;4769102;30;20364;-87
2023/01/02 15:26:02;;;;;;;1146.83;412.27;;;8.50;99.90;;;;;;4768587;30;20285;-88
2023/01/02 15:29:52;;;;;;;1158.33;438.87;;;8.50;99.90;;;;;;4751980;30;20294;-87
2023/01/02 15:32:55;;;;;;;1180.65;444.30;;;8.40;99.90;;;;;;4581133;27;17004267;-87
2023/01/02 15:36:33;;;;;;;;;;;8.40;99.90;;;;;;5128117;27;20065;-87
2023/01/02 15:40:09;;;;;;;1176.17;454.77;;;8.40;99.90;;;;;;5054723;28;19920;-87
2023/01/02 15:46:41;;;;;;;1168.10;441.10;;;8.30;99.90;;;;;;5058000;28;20053;-89
2023/01/02 15:50:08;;;;;;;1193.63;504.80;;;8.40;99.90;;;;;;5073145;28;20291;-88
2023/01/02 15:54:09;;;;;;;1151.93;435.70;;;8.30;99.90;;;;;;5010907;28;20085;-87
2023/01/02 15:57:27;;;;;;;1186.53;506.50;;;8.30;99.90;;;;;;4932712;29;20048;-89
2023/01/02 16:00:57;;;;;;;;;;;;;;;;;;;;;
2023/01/02 16:04:00;;;;;;;;;;;;;;;;;;;;;
2023/01/02 16:07:23;;;;;;;1212.23;509.70;;;8.20;99.90;;;;;;4921191;29;20284;-88
2023/01/02 16:18:28;;;;;;;1228.03;508.53;;;8.00;99.90;;;;;;4874420;29;20048;-90
2023/01/02 16:25:24;;;;;;;1156.37;441.57;;;7.80;99.90;;;;;;4837907;29;20053;-92
2023/01/02 16:28:04;;;;;;;1183.73;447.47;;;7.80;99.90;;;;;;4847500;29;20157;-89
2023/01/02 16:30:54;;;;;;;1171.83;437.70;;;7.30;99.90;;;;;;4897541;29;20057;-90
2023/01/02 16:41:46;;;;;;;1212.10;506.40;;;7.50;99.90;;;;;;4910499;29;20042;-88
2023/01/02 16:44:23;;;;;;;1177.87;437.43;;;7.50;99.90;;;;;;4906649;29;20082;-91
2023/01/02 16:46:51;;;;;;;1181.83;436.93;;;7.20;99.90;;;;;;4968668;28;20062;-91
2023/01/02 16:49:44;;;;;;;1210.57;506.87;;;7.40;99.90;;;;;;4959268;28;20108;-90
2023/01/02 16:52:23;;;;;;;1208.33;506.43;;;7.40;99.90;;;;;;4999641;28;20437;-88
2023/01/02 16:54:59;;;;;;;1182.33;447.97;;;7.30;99.90;;;;;;5035164;28;20052;-91
2023/01/02 16:57:49;;;;;;;;;;;7.20;99.90;;;;;;5037850;28;20048;-88
2023/01/02 17:00:33;;;;;;;1179.63;438.70;;;7.30;99.90;;;;;;5006599;28;20297;-87
2023/01/02 17:03:03;;;;;;;1161.67;437.83;;;7.20;99.90;;;;;;5001138;28;20418;-87
2023/01/02 17:05:54;;;;;;;1190.93;504.33;;;7.20;99.90;;;;;;5102681;27;20061;-90
2023/01/02 17:08:23;;;;;;;1185.67;504.20;;;7.20;99.90;;;;;;5152889;27;20039;-90
2023/01/02 17:10:51;;;;;;;1194.60;504.43;;;7.20;99.90;;;;;;5156682;27;20043;-88
2023/01/02 17:13:25;;;;;;;1176.50;502.30;;;7.10;99.90;;;;;;5157024;27;20051;-90
2023/01/02 17:15:56;;;;;;;1197.23;505.47;;;7.10;99.90;;;;;;5177154;27;20045;-87
2023/01/02 17:18:41;;;;;;;1161.53;432.93;;;7.00;99.90;;;;;;5160500;27;20050;-91
2023/01/02 17:21:33;;;;;;;1218.53;497.13;;;7.00;99.90;;;;;;5160258;27;20070;-88
2023/01/02 17:36:46;;;;;;;;;;;;;;;;;;;;;
2023/01/02 17:40:52;;;;;;;1134.77;495.10;;;6.80;99.90;;;;;;4993212;28;20044;-86
2023/01/02 18:00:14;;;;;;;1069.90;410.03;;;6.60;99.90;;;;;;4935841;29;20335;-87
2023/01/02 18:04:02;;;;;;;1080.30;492.77;;;7.40;99.90;;;;;;4914921;29;20311;-89
2023/01/02 18:06:52;;;;;;;1079.33;503.33;;;6.40;99.90;;;;;;4856860;29;20084;-89
2023/01/02 18:09:58;;;;;;;;;;;;;;;;;;;;;
2023/01/02 18:16:43;;;;;;;1064.17;493.87;;;6.20;99.90;;;;;;4954566;29;20326;-88
2023/01/02 18:24:00;;;;;;;1159.57;496.37;;;6.30;99.90;;;;;;4973826;28;20313;-90
2023/01/02 18:53:02;;;;;;;1019.57;403.13;;;5.90;99.90;;;;;;4992648;28;20320;-91
2023/01/02 19:03:55;;;;;;;;;;;;;;;;;;;;;
2023/01/02 19:08:11;;;;;;;;;;;;;;;;;;;;;
2023/01/02 19:30:07;;;;;;;1019.07;389.10;;;5.40;99.90;;;;;;4935205;28;20047;-87
2023/01/02 19:34:09;;;;;;;1070.77;390.77;;;5.30;99.90;;;;;;4914805;29;20848;-90
2023/01/02 19:36:52;;;;;;;1054.33;390.33;;;5.50;99.90;;;;;;4844186;29;20759;-89
2023/01/02 19:39:57;;;;;;;1071.00;482.50;;;5.20;99.90;;;;;;4857505;29;20298;-91
2023/01/02 19:42:58;;;;;;;1046.80;382.03;;;5.10;99.90;;;;;;4825421;29;20299;-91
2023/01/02 19:49:25;;;;;;;1055.33;479.47;;;5.80;99.90;;;;;;4821619;29;20849;-90
2023/01/02 19:52:19;;;;;;;1028.47;477.73;;;5.10;99.90;;;;;;4807033;29;20696;-90
2023/01/02 19:54:59;;;;;;;1018.23;475.67;;;6.20;99.90;;;;;;4819552;29;20057;-91
2023/01/02 19:58:23;;;;;;;;;;;;;;;;;;;;;
2023/01/02 20:01:20;;;;;;;963.07;384.90;;;5.00;99.90;;;;;;4840164;29;20327;-90
2023/01/02 20:04:06;;;;;;;943.27;479.07;;;5.00;99.90;;;;;;4847385;29;20581;-89
2023/01/02 20:07:21;;;;;;;;;;;;;;;;;;;;;
2023/01/02 20:10:12;;;;;;;935.57;392.13;;;4.90;99.90;;;;;;4826929;29;20390;-91
2023/01/02 20:13:14;;;;;;;1043.57;481.70;;;4.90;99.90;;;;;;4840848;29;20338;-90
2023/01/02 20:16:19;;;;;;;972.63;391.33;;;4.20;99.90;;;;;;4825300;29;20710;-90
2023/01/02 20:19:09;;;;;;;1034.57;385.90;;;4.90;99.90;;;;;;4871818;29;20312;-90
2023/01/02 20:21:49;;;;;;;;;;;5.00;99.90;;;;;;4919997;29;20289;-88
2023/01/02 20:24:32;;;;;;;1043.83;473.77;;;4.80;99.90;;;;;;4903527;29;20419;-87
2023/01/02 20:27:14;;;;;;;1033.83;382.53;;;4.80;99.90;;;;;;4902198;29;20721;-88
2023/01/02 20:30:08;;;;;;;1035.87;393.50;;;3.70;99.90;;;;;;4903246;29;20300;-87
2023/01/02 20:32:42;;;;;;;1007.75;397.33;;;4.90;99.90;;;;;;4917451;29;20300;-89
2023/01/02 20:35:17;;;;;;;1012.70;477.40;;;5.60;99.90;;;;;;4918757;29;20505;-88
2023/01/02 20:37:49;;;;;;;969.13;377.07;;;4.80;99.90;;;;;;4932115;28;20293;-87
2023/01/02 20:40:18;;;;;;;969.03;380.30;;;4.50;99.90;;;;;;5018164;28;20820;-89
2023/01/02 20:42:48;;;;;;;986.77;382.13;;;5.00;99.90;;;;;;5018812;28;20331;-88
2023/01/02 20:45:19;;;;;;;982.43;480.87;;;4.90;99.90;;;;;;5023155;28;20287;-87
2023/01/02 20:47:53;;;;;;;845.63;333.93;;;4.90;99.90;;;;;;5053951;28;20315;-88
2023/01/02 20:54:00;;;;;;;963.67;390.67;;;4.90;99.90;;;;;;5034731;28;20007;-88
2023/01/02 20:56:42;;;;;;;984.10;396.53;;;4.90;99.90;;;;;;5033535;28;20122;-88
2023/01/02 20:59:24;;;;;;;892.85;485.33;;;4.90;99.90;;;;;;5063953;28;20404;-90
2023/01/02 21:02:30;;;;;;;905.63;390.00;;;4.90;99.90;;;;;;5073539;28;20488;-91
2023/01/02 21:05:14;;;;;;;1096.87;499.17;;;4.90;99.90;;;;;;4977855;28;20405;-88
2023/01/02 21:11:45;;;;;;;819.20;451.00;;;4.90;99.90;;;;;;4997596;28;20448;-89
2023/01/02 21:18:58;;;;;;;;;;;;;;;;;;;;;
2023/01/02 21:22:41;;;;;;;1023.73;393.70;;;4.80;99.90;;;;;;4994109;28;20732;-88
2023/01/02 21:26:19;;;;;;;1039.97;398.00;;;4.10;99.90;;;;;;4898234;29;20303;-87
2023/01/02 21:29:58;;;;;;;;;;;;;;;;;;;;;
2023/01/02 21:49:46;;;;;;;;;;;;;;;;;;;;;
2023/01/02 21:57:10;;;;;;;;;;;;;;;;;;;;;
2023/01/02 22:12:32;;;;;;;;;;;;;;;;;;;;;
2023/01/02 22:30:37;;;;;;;959.93;377.80;;;3.90;99.90;;;;;;4823328;29;20286;-87
2023/01/02 23:03:30;;;;;;;939.90;481.90;;;4.80;99.90;;;;;;4859520;29;20306;-86
2023/01/02 23:11:06;;;;;;;;;;;;;;;;;;;;;
2023/01/02 23:25:54;;;;;;;;;;;;;;;;;;;;;
2023/01/02 23:33:25;;;;;;;929.80;385.47;;;4.40;99.90;;;;;;4895988;29;20387;-87
2023/01/02 23:49:11;;;;;;;906.77;382.77;;;4.20;99.90;;;;;;4877516;29;20306;-87
2023/01/02 23:57:37;;;;;;;941.83;378.00;;;4.10;99.90;;;;;;4816212;29;20350;-86
